Time;durP1;ratioP1;P1;durP2;ratioP2;P2;SDS_P1;SDS_P2;PMS_P1;PMS_P2;Temp;Humidity;BMP_temperature;BMP_pressure;BME280_temperature;BME280_humidity;BME280_pressure;Samples;Min_cycle;Max_cycle;Signal;HPM_P1;HPM_P2
2023/05/21 00:01:51;;;;;;;8.10;5.50;;;;;;;21.21;40.61;100577.27;108173;1287;21999;-59
2023/05/21 00:04:16;;;;;;;9.50;6.00;;;;;;;21.24;40.57;100573.75;107398;1287;1002493;-60
2023/05/21 00:06:42;;;;;;;9.00;5.50;;;;;;;21.28;40.68;100572.11;108094;1287;21993;-59
2023/05/21 00:09:08;;;;;;;8.30;6.90;;;;;;;21.29;40.77;100569.75;108120;1287;21992;-58
2023/05/21 00:11:34;;;;;;;11.10;6.70;;;;;;;21.28;40.76;100567.64;108091;1287;22030;-58
2023/05/21 00:14:00;;;;;;;8.50;6.60;;;;;;;21.29;40.87;100565.64;108194;1288;21985;-59
2023/05/21 00:16:26;;;;;;;10.20;6.60;;;;;;;21.28;40.98;100558.54;108109;1287;22460;-60
2023/05/21 00:18:53;;;;;;;11.90;6.80;;;;;;;21.27;40.96;100552.89;108170;1287;21989;-59
2023/05/21 00:21:24;;;;;;;8.80;6.40;;;;;;;21.27;40.98;100548.27;108168;1287;22031;-60
2023/05/21 00:23:55;;;;;;;8.10;6.00;;;;;;;21.25;41.15;100553.69;108212;1287;21995;-60
2023/05/21 00:26:21;;;;;;;;;;;;;;;21.25;41.24;100552.79;107420;1287;1002829;-59
2023/05/21 00:28:46;;;;;;;10.50;5.50;;;;;;;21.27;41.22;100552.36;108190;1287;22001;-59
2023/05/21 00:31:12;;;;;;;8.60;6.00;;;;;;;21.28;41.41;100550.15;108118;1287;21989;-59
2023/05/21 00:33:38;;;;;;;8.20;6.20;;;;;;;21.32;41.39;100548.73;108131;1287;22024;-59
2023/05/21 00:36:05;;;;;;;8.10;5.90;;;;;;;21.34;41.27;100553.25;108112;1287;21995;-59
2023/05/21 00:38:31;;;;;;;8.50;6.00;;;;;;;21.36;41.22;100555.99;108161;1287;21996;-60
2023/05/21 00:41:03;;;;;;;9.50;6.30;;;;;;;21.38;41.29;100558.55;108120;1287;21999;-61
2023/05/21 00:43:29;;;;;;;6.80;6.00;;;;;;;21.36;41.29;100560.61;108053;1287;22956;-60
2023/05/21 00:45:55;;;;;;;8.90;6.30;;;;;;;21.34;41.48;100561.79;108102;1288;22031;-61
2023/05/21 00:48:21;;;;;;;7.80;5.30;;;;;;;21.29;41.59;100561.52;107830;1288;21990;-58
2023/05/21 00:50:48;;;;;;;6.80;5.40;;;;;;;21.23;41.75;100559.36;107816;1288;21992;-59
2023/05/21 00:53:18;;;;;;;16.70;5.90;;;;;;;21.17;41.84;100554.53;108204;1287;21979;-59
2023/05/21 00:55:44;;;;;;;7.90;5.60;;;;;;;21.11;42.00;100554.48;108036;1287;22006;-58
2023/05/21 00:58:09;;;;;;;9.90;5.70;;;;;;;21.05;41.94;100554.92;108187;1287;21995;-58
2023/05/21 01:00:36;;;;;;;13.90;6.20;;;;;;;21.03;42.17;100550.23;107943;1288;21992;-58
2023/05/21 01:03:02;;;;;;;7.70;6.10;;;;;;;21.01;42.35;100547.15;108118;1287;22029;-60
2023/05/21 01:05:28;;;;;;;7.80;6.00;;;;;;;20.99;42.29;100542.24;108103;1287;21992;-60
2023/05/21 01:07:54;;;;;;;7.60;5.40;;;;;;;20.96;42.47;100539.18;108177;1287;23726;-60
2023/05/21 01:10:20;;;;;;;8.80;6.00;;;;;;;20.95;42.47;100537.84;107916;1288;21991;-59
2023/05/21 01:12:46;;;;;;;7.70;5.20;;;;;;;20.95;42.47;100537.83;107806;1288;22000;-58
2023/05/21 01:15:12;;;;;;;9.80;6.40;;;;;;;20.97;42.61;100535.03;108094;1288;22031;-58
2023/05/21 01:17:38;;;;;;;10.10;6.50;;;;;;;20.98;42.71;100536.04;107872;1287;21999;-61
2023/05/21 01:20:11;;;;;;;8.90;6.30;;;;;;;20.97;42.69;100535.06;108034;1287;21989;-58
2023/05/21 01:22:40;;;;;;;10.70;6.70;;;;;;;20.96;42.87;100533.48;108112;1287;21994;-59
2023/05/21 01:25:06;;;;;;;9.20;6.90;;;;;;;20.94;43.07;100528.27;108254;1287;22023;-58
2023/05/21 01:27:32;;;;;;;10.10;6.40;;;;;;;20.90;43.12;100526.84;108142;1287;22001;-60
2023/05/21 01:29:58;;;;;;;9.40;6.80;;;;;;;20.89;43.15;100525.14;108169;1287;22036;-59
2023/05/21 01:32:33;;;;;;;9.70;6.40;;;;;;;20.88;43.09;100525.35;107868;1288;22013;-59
2023/05/21 01:35:25;;;;;;;9.60;7.10;;;;;;;20.90;43.15;100521.52;108110;1288;22004;-58
2023/05/21 01:37:58;;;;;;;10.80;7.30;;;;;;;20.89;43.37;100520.84;108080;1287;21994;-59
2023/05/21 01:40:45;;;;;;;10.50;8.50;;;;;;;20.89;43.49;100519.09;108136;1287;21988;-59
2023/05/21 01:43:10;;;;;;;12.40;8.90;;;;;;;20.87;43.70;100516.84;108190;1287;21986;-60
2023/05/21 01:45:38;;;;;;;13.80;8.50;;;;;;;20.84;43.39;100516.83;108026;1287;21991;-60
2023/05/21 01:48:05;;;;;;;12.90;8.60;;;;;;;20.83;43.33;100517.95;108195;1287;23714;-59
2023/05/21 01:50:31;;;;;;;15.00;8.60;;;;;;;20.82;43.55;100518.71;108184;1287;21992;-60
2023/05/21 01:52:57;;;;;;;15.20;8.90;;;;;;;20.81;43.40;100522.12;108156;1287;21987;-60
2023/05/21 01:55:25;;;;;;;15.90;9.00;;;;;;;20.80;43.33;100523.26;108092;1287;21991;-59
2023/05/21 01:57:52;;;;;;;15.40;8.30;;;;;;;20.79;43.58;100526.86;108163;1287;22000;-60
2023/05/21 02:00:21;;;;;;;11.90;8.60;;;;;;;20.77;43.41;100528.95;108143;1287;23477;-59
2023/05/21 02:02:48;;;;;;;13.80;8.60;;;;;;;20.74;43.40;100529.80;108066;1288;22003;-60
2023/05/21 02:05:13;;;;;;;12.40;7.70;;;;;;;20.72;43.35;100532.94;108121;1287;21998;-59
2023/05/21 02:07:40;;;;;;;10.50;7.30;;;;;;;20.70;43.64;100529.70;108110;1287;21999;-59
2023/05/21 02:10:06;;;;;;;11.40;7.20;;;;;;;20.64;43.67;100529.80;108117;1283;21992;-60
2023/05/21 02:12:32;;;;;;;12.90;7.50;;;;;;;20.59;43.46;100529.33;108119;1287;22478;-60
2023/05/21 02:14:58;;;;;;;14.00;7.30;;;;;;;20.56;43.57;100527.15;108131;1288;21994;-59
2023/05/21 02:17:24;;;;;;;13.40;8.10;;;;;;;20.54;43.60;100527.43;108111;1287;21995;-60
2023/05/21 02:19:50;;;;;;;14.70;8.60;;;;;;;20.51;43.72;100530.45;105960;1287;1002886;-59
2023/05/21 02:22:16;;;;;;;12.00;8.10;;;;;;;20.49;43.60;100532.84;108104;1287;21999;-59
2023/05/21 02:24:42;;;;;;;13.20;7.50;;;;;;;20.49;43.60;100533.02;108088;1288;22053;-59
2023/05/21 02:27:09;;;;;;;12.50;6.50;;;;;;;20.48;43.60;100529.19;107837;1287;22112;-60
2023/05/21 02:29:35;;;;;;;12.50;7.20;;;;;;;20.45;43.50;100528.06;108040;1287;21989;-59
2023/05/21 02:32:01;;;;;;;18.00;7.10;;;;;;;20.44;43.53;100530.11;108091;1287;21998;-59
2023/05/21 02:34:29;;;;;;;12.20;7.40;;;;;;;20.43;43.52;100526.94;108115;1288;22002;-59
2023/05/21 02:36:57;;;;;;;12.60;7.30;;;;;;;20.44;43.59;100527.42;108126;1287;22027;-58
2023/05/21 02:39:23;;;;;;;10.50;7.00;;;;;;;20.42;43.70;100530.55;108122;1288;22454;-59
2023/05/21 02:41:49;;;;;;;12.10;7.80;;;;;;;20.38;43.79;100531.49;108079;1287;21992;-59
2023/05/21 02:44:14;;;;;;;11.40;7.20;;;;;;;20.33;43.77;100527.98;108101;1288;22012;-58
2023/05/21 02:46:40;;;;;;;11.20;7.30;;;;;;;20.31;43.94;100528.95;108075;1287;21992;-59
2023/05/21 02:49:06;;;;;;;12.70;7.50;;;;;;;20.31;44.04;100527.56;108129;1288;22001;-57
2023/05/21 02:51:31;;;;;;;10.80;7.30;;;;;;;20.31;44.02;100528.23;108148;1287;21997;-59
2023/05/21 02:53:57;;;;;;;12.80;7.00;;;;;;;20.31;44.07;100528.61;108220;1287;22010;-59
2023/05/21 02:56:23;;;;;;;13.50;7.30;;;;;;;20.31;44.27;100530.05;108116;1287;21991;-59
2023/05/21 02:58:50;;;;;;;11.60;7.00;;;;;;;20.32;44.38;100528.39;108193;1287;21992;-59
2023/05/21 03:01:16;;;;;;;12.30;6.90;;;;;;;20.33;44.28;100527.23;108106;1287;21991;-60
2023/05/21 03:03:42;;;;;;;11.90;6.70;;;;;;;20.33;44.34;100530.64;107917;1288;22029;-60
2023/05/21 03:06:10;;;;;;;15.40;7.10;;;;;;;20.33;44.55;100534.36;108073;1287;21996;-59
2023/05/21 03:08:36;;;;;;;9.30;6.30;;;;;;;20.36;44.48;100540.64;108080;1287;22002;-59
2023/05/21 03:11:02;;;;;;;14.60;7.90;;;;;;;20.40;44.37;100536.89;108077;1287;22000;-60
2023/05/21 03:13:28;;;;;;;24.20;8.30;;;;;;;20.44;44.36;100536.35;108046;1283;22004;-59
2023/05/21 03:15:55;;;;;;;19.80;8.20;;;;;;;20.50;44.37;100536.59;108064;1287;22009;-61
2023/05/21 03:18:21;;;;;;;18.80;8.50;;;;;;;20.57;44.59;100535.86;108103;1287;22001;-60
2023/05/21 03:20:47;;;;;;;14.30;8.70;;;;;;;20.62;44.47;100538.78;108114;1287;22624;-59
2023/05/21 03:23:13;;;;;;;19.00;8.10;;;;;;;20.67;44.56;100539.61;108081;1287;22002;-58
2023/05/21 03:25:39;;;;;;;14.80;7.80;;;;;;;20.72;44.47;100539.19;108106;1287;21997;-59
2023/05/21 03:28:05;;;;;;;16.10;7.50;;;;;;;20.79;44.47;100538.48;108168;1287;22460;-61
2023/05/21 03:30:31;;;;;;;13.40;7.50;;;;;;;20.85;44.54;100537.83;108144;1287;21992;-61
2023/05/21 03:32:58;;;;;;;11.90;6.80;;;;;;;20.90;44.38;100540.58;108198;1287;22030;-61
2023/05/21 03:35:24;;;;;;;11.40;6.10;;;;;;;20.99;44.27;100540.14;108154;1287;21986;-60
2023/05/21 03:37:50;;;;;;;10.30;5.90;;;;;;;21.08;44.23;100539.66;108101;1287;22003;-60
2023/05/21 03:40:15;;;;;;;13.50;6.50;;;;;;;21.18;44.14;100540.55;108092;1288;21983;-59
2023/05/21 03:42:41;;;;;;;13.10;6.90;;;;;;;21.28;43.97;100542.70;108076;1287;21995;-59
2023/05/21 03:45:08;;;;;;;8.10;5.40;;;;;;;21.37;43.84;100546.30;108096;1288;21999;-58
2023/05/21 03:47:34;;;;;;;19.00;6.30;;;;;;;21.46;43.88;100548.66;108088;1287;21999;-60
2023/05/21 03:50:01;;;;;;;11.10;5.90;;;;;;;21.54;43.83;100548.56;108081;1287;22003;-58
2023/05/21 03:52:27;;;;;;;15.40;5.30;;;;;;;21.62;43.54;100546.20;108149;1287;21995;-60
2023/05/21 03:54:52;;;;;;;11.40;5.00;;;;;;;21.71;43.48;100544.61;108138;1288;21998;-61
2023/05/21 03:57:18;;;;;;;11.50;6.20;;;;;;;21.81;43.45;100545.30;108111;1287;21995;-61
2023/05/21 03:59:44;;;;;;;8.80;5.10;;;;;;;21.89;43.24;100541.10;108214;1287;21998;-60
2023/05/21 04:02:09;;;;;;;13.30;5.10;;;;;;;21.97;43.25;100534.74;107374;1287;1003119;-61
2023/05/21 04:04:35;;;;;;;10.80;5.90;;;;;;;22.07;43.10;100529.90;108149;1284;21990;-61
2023/05/21 04:07:03;;;;;;;9.20;4.80;;;;;;;22.13;43.06;100531.51;108157;1287;21987;-59
2023/05/21 04:09:29;;;;;;;11.30;6.20;;;;;;;22.19;42.98;100525.29;108090;1287;21992;-57
2023/05/21 04:11:55;;;;;;;8.40;5.00;;;;;;;22.23;43.04;100525.21;108123;1287;22456;-58
2023/05/21 04:14:23;;;;;;;9.50;5.10;;;;;;;22.32;42.93;100528.28;107908;1287;22049;-57
2023/05/21 04:16:49;;;;;;;8.60;4.80;;;;;;;22.43;42.89;100529.42;108182;1287;21989;-57
2023/05/21 04:19:14;;;;;;;6.90;4.90;;;;;;;22.53;42.70;100532.02;108093;1287;22012;-60
2023/05/21 04:21:40;;;;;;;7.60;4.90;;;;;;;22.64;42.71;100531.55;108133;1287;22029;-61
2023/05/21 04:24:06;;;;;;;7.30;4.40;;;;;;;22.77;42.55;100533.30;108113;1287;22455;-58
2023/05/21 04:26:35;;;;;;;11.70;5.10;;;;;;;22.88;42.46;100529.61;108144;1287;21991;-61
2023/05/21 04:29:02;;;;;;;9.90;4.40;;;;;;;22.97;42.43;100529.92;108139;1284;21997;-58
2023/05/21 04:31:31;;;;;;;8.00;4.60;;;;;;;23.08;42.25;100529.81;108081;1287;21958;-59
2023/05/21 04:33:56;;;;;;;6.80;4.70;;;;;;;23.19;42.11;100527.67;108917;1286;21995;-58
2023/05/21 04:36:23;;;;;;;14.80;8.20;;;;;;;23.31;42.05;100529.30;108143;1287;21987;-62
2023/05/21 04:38:48;;;;;;;14.40;7.50;;;;;;;23.40;41.89;100531.98;108157;1287;22174;-60
2023/05/21 04:41:17;;;;;;;9.50;4.50;;;;;;;23.49;41.87;100532.65;108114;1287;21991;-61
2023/05/21 04:43:43;;;;;;;10.00;4.50;;;;;;;23.60;41.90;100529.41;108182;1287;22003;-59
2023/05/21 04:46:08;;;;;;;9.20;4.20;;;;;;;23.70;41.90;100526.64;108151;1287;22027;-59
2023/05/21 04:48:35;;;;;;;8.80;4.10;;;;;;;23.80;41.69;100528.34;108110;1287;21998;-59
2023/05/21 04:51:04;;;;;;;7.40;4.00;;;;;;;23.91;41.67;100524.52;108126;1287;21992;-57
2023/05/21 04:53:30;;;;;;;8.80;3.90;;;;;;;24.04;41.58;100526.56;108095;1287;21992;-58
2023/05/21 04:55:58;;;;;;;6.90;4.30;;;;;;;24.20;41.46;100521.78;108052;1287;22005;-57
2023/05/21 04:58:23;;;;;;;6.10;3.70;;;;;;;24.38;41.32;100518.61;108104;1287;21998;-59
2023/05/21 05:00:50;;;;;;;7.90;4.40;;;;;;;24.53;41.24;100517.95;108161;1287;21990;-60
2023/05/21 05:03:16;;;;;;;9.20;5.30;;;;;;;24.63;41.15;100514.58;108180;1284;21994;-57
2023/05/21 05:05:42;;;;;;;6.50;3.90;;;;;;;24.77;41.10;100516.14;108130;1287;22454;-58
2023/05/21 05:08:07;;;;;;;7.90;4.40;;;;;;;24.90;40.97;100516.27;107858;1288;22002;-58
2023/05/21 05:10:34;;;;;;;6.20;4.30;;;;;;;25.04;40.76;100517.98;108135;1288;21995;-59
2023/05/21 05:13:00;;;;;;;8.30;4.10;;;;;;;25.23;40.61;100518.80;108068;1287;21993;-60
2023/05/21 05:15:25;;;;;;;6.60;4.20;;;;;;;25.40;40.46;100516.52;108055;1288;22004;-59
2023/05/21 05:17:51;;;;;;;8.30;4.50;;;;;;;25.57;40.40;100511.20;108083;1287;22046;-57
2023/05/21 05:20:17;;;;;;;9.10;4.20;;;;;;;25.71;40.21;100509.11;108120;1287;22083;-59
2023/05/21 05:22:42;;;;;;;5.50;3.80;;;;;;;25.83;40.32;100508.19;108152;1287;22004;-59
2023/05/21 05:25:08;;;;;;;6.60;3.70;;;;;;;26.02;40.44;100508.59;108203;1284;22456;-58
2023/05/21 05:27:34;;;;;;;10.90;3.80;;;;;;;26.24;40.10;100508.94;108130;1287;21999;-60
2023/05/21 05:30:00;;;;;;;7.40;4.10;;;;;;;26.40;39.59;100509.55;108083;1287;22761;-57
2023/05/21 05:32:25;;;;;;;5.50;3.30;;;;;;;26.54;39.48;100510.10;108071;1287;21999;-59
2023/05/21 05:34:51;;;;;;;8.30;4.00;;;;;;;26.65;39.08;100509.96;108085;1287;21993;-60
2023/05/21 05:37:16;;;;;;;8.30;4.00;;;;;;;26.74;39.21;100511.41;108089;1288;21999;-59
2023/05/21 05:39:42;;;;;;;10.70;4.10;;;;;;;26.86;39.24;100510.11;108091;1287;22046;-57
2023/05/21 05:42:08;;;;;;;9.10;4.30;;;;;;;27.03;39.18;100506.80;107792;1287;21999;-60
2023/05/21 05:44:33;;;;;;;7.50;3.80;;;;;;;27.24;38.93;100504.98;109981;1288;21902;-59
2023/05/21 05:46:59;;;;;;;6.20;3.90;;;;;;;27.37;38.76;100503.89;110031;1287;21911;-60
2023/05/21 05:49:24;;;;;;;9.60;3.80;;;;;;;27.51;38.60;100501.23;109312;1286;23818;-60
2023/05/21 05:51:50;;;;;;;8.80;3.80;;;;;;;27.70;38.40;100501.45;108029;1283;24325;-58
2023/05/21 05:54:16;;;;;;;7.70;3.50;;;;;;;27.93;38.27;100505.30;108126;1287;22027;-58
2023/05/21 05:56:41;;;;;;;5.80;3.50;;;;;;;28.12;37.80;100506.30;108091;1287;22002;-58
2023/05/21 05:59:07;;;;;;;6.10;3.50;;;;;;;28.29;37.73;100506.61;108071;1287;21980;-59
2023/05/21 06:01:34;;;;;;;9.00;3.70;;;;;;;28.42;37.68;100505.20;108062;1287;23461;-58
2023/05/21 06:03:59;;;;;;;5.30;3.40;;;;;;;28.52;37.43;100501.25;108089;1287;22001;-58
2023/05/21 06:06:25;;;;;;;4.80;3.10;;;;;;;28.64;37.22;100501.17;108055;1284;21997;-60
2023/05/21 06:08:51;;;;;;;8.40;3.70;;;;;;;28.71;37.21;100502.33;108079;1287;22010;-59
2023/05/21 06:11:17;;;;;;;9.30;4.00;;;;;;;28.83;36.98;100499.77;108108;1287;21995;-60
2023/05/21 06:13:44;;;;;;;12.90;4.30;;;;;;;28.95;36.58;100496.14;108075;1287;21987;-60
2023/05/21 06:16:10;;;;;;;6.50;3.20;;;;;;;29.03;36.55;100489.27;108065;1287;22028;-60
2023/05/21 06:18:36;;;;;;;7.40;3.60;;;;;;;29.17;36.51;100492.23;108118;1287;22107;-58
2023/05/21 06:21:02;;;;;;;7.00;4.10;;;;;;;29.29;36.32;100488.96;108129;1287;21996;-57
2023/05/21 06:23:31;;;;;;;7.00;3.40;;;;;;;29.39;36.17;100485.96;108093;1287;21958;-57
2023/05/21 06:25:56;;;;;;;5.40;3.40;;;;;;;29.60;35.99;100481.58;108128;1283;21989;-61
2023/05/21 06:28:22;;;;;;;7.30;4.00;;;;;;;29.85;35.96;100482.33;108087;1287;21990;-58
2023/05/21 06:30:48;;;;;;;14.60;4.50;;;;;;;30.06;35.68;100485.45;108144;1287;23615;-61
2023/05/21 06:33:14;;;;;;;8.30;4.10;;;;;;;30.27;35.57;100482.27;108109;1287;22014;-61
2023/05/21 06:35:40;;;;;;;8.30;4.20;;;;;;;30.44;35.59;100484.30;108187;1287;22002;-59
2023/05/21 06:38:07;;;;;;;7.60;4.10;;;;;;;30.59;35.31;100481.95;108000;1288;21998;-60
2023/05/21 06:40:33;;;;;;;9.60;4.20;;;;;;;30.75;34.94;100486.27;108053;1287;22238;-61
2023/05/21 06:42:59;;;;;;;8.40;4.70;;;;;;;30.87;34.62;100486.73;108115;1287;22048;-59
2023/05/21 06:45:25;;;;;;;10.60;4.00;;;;;;;31.03;34.17;100484.52;108149;1287;22106;-59
2023/05/21 06:47:51;;;;;;;10.70;3.90;;;;;;;31.16;34.18;100485.64;108088;1287;22018;-60
2023/05/21 06:50:16;;;;;;;8.80;3.70;;;;;;;31.35;34.36;100485.62;108544;1283;22001;-59
2023/05/21 06:52:42;;;;;;;10.30;4.30;;;;;;;31.48;34.21;100479.95;108053;1287;21990;-62
2023/05/21 06:55:08;;;;;;;9.50;4.10;;;;;;;31.59;33.91;100479.56;108097;1287;21997;-58
2023/05/21 06:57:36;;;;;;;6.70;4.00;;;;;;;31.64;33.71;100473.45;108106;1287;22011;-59
2023/05/21 07:00:03;;;;;;;7.30;4.00;;;;;;;31.68;33.79;100469.98;108162;1287;22457;-59
2023/05/21 07:02:30;;;;;;;6.80;4.20;;;;;;;31.75;33.75;100471.14;108170;1283;22458;-58
2023/05/21 07:04:55;;;;;;;8.00;4.10;;;;;;;31.82;33.62;100470.09;108037;1287;21994;-59
2023/05/21 07:07:21;;;;;;;12.00;3.80;;;;;;;31.84;33.50;100474.89;108226;1287;21981;-59
2023/05/21 07:09:46;;;;;;;6.90;4.10;;;;;;;31.94;33.43;100472.98;108162;1283;22001;-61
2023/05/21 07:12:12;;;;;;;10.20;4.00;;;;;;;32.17;33.52;100471.58;107946;1287;22002;-59
2023/05/21 07:14:38;;;;;;;11.30;3.40;;;;;;;32.45;33.09;100468.58;108127;1287;21993;-62
2023/05/21 07:17:03;;;;;;;8.00;3.10;;;;;;;32.76;32.88;100469.77;108093;1287;21998;-61
2023/05/21 07:19:30;;;;;;;6.00;3.60;;;;;;;33.05;32.61;100470.67;108123;1287;21995;-62
2023/05/21 07:21:56;;;;;;;5.00;3.10;;;;;;;33.31;32.29;100468.16;108074;1284;21995;-63
2023/05/21 07:24:21;;;;;;;6.20;2.70;;;;;;;33.54;32.25;100470.83;108085;1287;21988;-62
2023/05/21 07:26:47;;;;;;;6.60;3.60;;;;;;;33.76;32.11;100469.49;107973;1287;22005;-59
2023/05/21 07:29:13;;;;;;;7.40;3.30;;;;;;;33.94;32.17;100464.83;108115;1287;21994;-62
2023/05/21 07:31:38;;;;;;;6.50;3.00;;;;;;;34.12;31.92;100465.95;108139;1287;22007;-62
2023/05/21 07:34:04;;;;;;;8.00;3.30;;;;;;;34.25;31.67;100464.54;108058;1287;22162;-60
2023/05/21 07:36:32;;;;;;;8.70;3.20;;;;;;;34.31;31.37;100462.61;108100;1287;21995;-59
2023/05/21 07:38:57;;;;;;;7.60;3.50;;;;;;;34.43;31.14;100461.80;108046;1287;21989;-59
2023/05/21 07:41:23;;;;;;;7.60;3.40;;;;;;;34.62;31.09;100458.92;108071;1287;21995;-61
2023/05/21 07:43:49;;;;;;;4.90;3.10;;;;;;;34.70;30.76;100452.30;108073;1287;22219;-59
2023/05/21 07:46:14;;;;;;;6.00;3.30;;;;;;;34.80;30.65;100449.92;108120;1287;21987;-59
2023/05/21 07:48:40;;;;;;;8.10;3.20;;;;;;;35.00;30.43;100446.27;108091;1287;22027;-59
2023/05/21 07:51:07;;;;;;;6.40;3.20;;;;;;;35.17;30.29;100444.31;108078;1288;21985;-60
2023/05/21 07:53:33;;;;;;;6.40;3.50;;;;;;;35.22;30.30;100438.54;107804;1287;21978;-59
2023/05/21 07:55:59;;;;;;;9.20;3.60;;;;;;;35.20;30.07;100437.36;108094;1287;24159;-61
2023/05/21 07:58:24;;;;;;;8.40;4.00;;;;;;;35.06;29.66;100441.06;108085;1287;22000;-59
2023/05/21 08:00:50;;;;;;;5.90;3.20;;;;;;;34.83;29.86;100441.20;108047;1287;22027;-58
2023/05/21 08:03:16;;;;;;;6.30;3.30;;;;;;;34.74;30.08;100441.75;108066;1280;22002;-59
2023/05/21 08:05:47;;;;;;;9.70;3.00;;;;;;;34.81;30.39;100442.88;108089;1287;21992;-59
2023/05/21 08:08:16;;;;;;;6.10;3.20;;;;;;;34.95;30.23;100442.09;108135;1287;21992;-60
2023/05/21 08:10:43;;;;;;;6.10;3.00;;;;;;;34.96;30.05;100436.80;108159;1287;22080;-60
2023/05/21 08:13:10;;;;;;;6.90;3.10;;;;;;;34.92;30.00;100437.80;108173;1284;21990;-59
2023/05/21 08:15:36;;;;;;;8.80;3.90;;;;;;;34.92;30.03;100434.59;108150;1287;23052;-59
2023/05/21 08:18:01;;;;;;;8.60;3.20;;;;;;;34.88;29.78;100436.30;108098;1287;21992;-61
2023/05/21 08:20:29;;;;;;;7.40;3.20;;;;;;;34.93;29.83;100438.84;108199;1287;22047;-59
2023/05/21 08:22:55;;;;;;;7.60;2.90;;;;;;;35.04;29.59;100442.54;108117;1287;21992;-60
2023/05/21 08:25:21;;;;;;;6.60;3.20;;;;;;;35.14;29.79;100445.05;108112;1287;22012;-60
2023/05/21 08:27:47;;;;;;;9.50;3.30;;;;;;;35.23;29.77;100444.15;108087;1287;22002;-61
2023/05/21 08:30:13;;;;;;;13.20;3.40;;;;;;;35.29;29.20;100448.94;108097;1287;21987;-59
2023/05/21 08:32:40;;;;;;;8.90;3.40;;;;;;;35.24;29.05;100451.52;108146;1287;22004;-60
2023/05/21 08:35:07;;;;;;;10.10;3.40;;;;;;;35.21;29.02;100454.45;108131;1287;22195;-58
2023/05/21 08:37:33;;;;;;;8.30;3.10;;;;;;;35.19;28.63;100460.47;108138;1287;22003;-60
2023/05/21 08:39:58;;;;;;;7.30;3.60;;;;;;;35.21;28.75;100462.48;108149;1287;21985;-59
2023/05/21 08:42:46;;;;;;;9.40;3.60;;;;;;;35.31;28.94;100457.24;108117;1281;21985;-59
2023/05/21 08:45:15;;;;;;;8.30;3.10;;;;;;;35.41;28.74;100455.94;108140;1287;21989;-60
2023/05/21 08:47:43;;;;;;;8.00;3.40;;;;;;;35.46;28.78;100451.00;108094;1287;21992;-59
2023/05/21 08:50:10;;;;;;;11.00;3.80;;;;;;;35.51;28.84;100446.52;108209;1287;21998;-59
2023/05/21 08:52:36;;;;;;;7.80;3.80;;;;;;;35.67;28.74;100446.52;108114;1287;22151;-59
2023/05/21 08:55:06;;;;;;;7.40;3.80;;;;;;;35.81;28.43;100440.65;107848;1287;298534;-59
2023/05/21 08:57:32;;;;;;;5.90;3.10;;;;;;;35.79;28.17;100439.86;108030;1283;23052;-59
2023/05/21 08:59:58;;;;;;;13.40;4.40;;;;;;;35.80;28.42;100440.05;108094;1287;22001;-59
2023/05/21 09:02:24;;;;;;;7.40;3.20;;;;;;;35.91;28.33;100440.92;108045;1287;21991;-59
2023/05/21 09:04:56;;;;;;;6.20;3.20;;;;;;;36.06;28.37;100438.38;108091;1287;21993;-59
2023/05/21 09:07:24;;;;;;;6.60;3.60;;;;;;;36.32;28.45;100437.17;108150;1287;22068;-59
2023/05/21 09:09:54;;;;;;;7.70;3.50;;;;;;;36.61;28.25;100432.60;108153;1287;21997;-60
2023/05/21 09:12:20;;;;;;;11.00;3.80;;;;;;;36.83;27.96;100430.04;108156;1287;21986;-60
2023/05/21 09:14:46;;;;;;;7.20;3.60;;;;;;;36.98;27.44;100431.39;108078;1287;22043;-59
2023/05/21 09:17:13;;;;;;;8.60;3.50;;;;;;;37.11;27.47;100430.84;108068;1287;21987;-59
2023/05/21 09:20:11;;;;;;;9.10;3.30;;;;;;;37.29;27.62;100427.70;108150;1287;22666;-58
2023/05/21 09:22:58;;;;;;;9.70;3.80;;;;;;;37.47;27.52;100425.13;108129;1287;22173;-59
2023/05/21 09:25:28;;;;;;;12.00;3.70;;;;;;;37.59;27.16;100423.91;107970;1287;22870;-59
2023/05/21 09:27:59;;;;;;;12.90;4.00;;;;;;;37.74;27.31;100420.37;108178;1287;22241;-59
2023/05/21 09:30:26;;;;;;;13.70;5.30;;;;;;;37.88;27.16;100423.20;108101;1287;22149;-58
2023/05/21 09:32:56;;;;;;;10.70;5.80;;;;;;;37.97;26.99;100419.53;108114;1287;22572;-59
2023/05/21 09:35:21;;;;;;;15.90;5.20;;;;;;;38.02;26.92;100417.97;108124;1287;21989;-59
2023/05/21 09:37:48;;;;;;;12.80;4.70;;;;;;;38.13;27.03;100421.09;108134;1287;21995;-60
2023/05/21 09:40:20;;;;;;;12.60;5.30;;;;;;;38.27;26.90;100418.52;108052;1287;22028;-59
2023/05/21 09:42:47;;;;;;;11.10;4.30;;;;;;;38.44;26.69;100419.66;108132;1287;21998;-58
2023/05/21 09:45:19;;;;;;;7.60;3.70;;;;;;;38.50;26.16;100419.08;108076;1288;21997;-58
2023/05/21 09:47:46;;;;;;;7.60;3.50;;;;;;;38.51;26.23;100420.73;108073;1287;21984;-59
2023/05/21 09:50:19;;;;;;;6.70;3.90;;;;;;;38.61;26.15;100420.91;108110;1287;21990;-59
2023/05/21 09:52:45;;;;;;;10.10;3.90;;;;;;;38.66;25.73;100421.95;108120;1287;22472;-60
2023/05/21 09:55:11;;;;;;;18.00;3.80;;;;;;;38.67;26.00;100421.02;108129;1287;21994;-61
2023/05/21 09:57:41;;;;;;;13.90;3.90;;;;;;;38.76;25.93;100422.04;108149;1286;21990;-60
2023/05/21 10:00:09;;;;;;;7.40;3.20;;;;;;;38.91;25.83;100416.27;108045;1287;21984;-61
2023/05/21 10:02:36;;;;;;;15.00;3.90;;;;;;;39.11;25.92;100415.89;108151;1280;21997;-59
2023/05/21 10:05:02;;;;;;;8.00;3.20;;;;;;;39.26;25.55;100416.53;108077;1287;21989;-59
2023/05/21 10:07:27;;;;;;;14.20;3.40;;;;;;;39.27;25.20;100408.70;108076;1287;22066;-61
2023/05/21 10:09:55;;;;;;;8.30;3.30;;;;;;;39.23;25.49;100406.70;107870;1287;22034;-61
2023/05/21 10:12:21;;;;;;;9.30;3.30;;;;;;;39.34;25.36;100403.02;108148;1287;22277;-60
2023/05/21 10:14:50;;;;;;;5.50;3.20;;;;;;;39.51;25.10;100400.94;108219;1287;21994;-59
2023/05/21 10:17:16;;;;;;;7.10;3.30;;;;;;;39.67;25.15;100392.95;108198;1287;21989;-59
2023/05/21 10:19:42;;;;;;;8.30;3.70;;;;;;;39.83;25.11;100396.77;107915;1287;22042;-59
2023/05/21 10:22:08;;;;;;;8.30;3.40;;;;;;;39.98;25.24;100394.39;108030;1287;21994;-61
2023/05/21 10:24:34;;;;;;;7.30;3.60;;;;;;;40.13;25.07;100393.27;107845;1284;21997;-59
2023/05/21 10:27:00;;;;;;;8.20;3.50;;;;;;;40.25;25.03;100388.65;107817;1287;22515;-59
2023/05/21 10:29:26;;;;;;;10.40;3.60;;;;;;;40.40;24.89;100384.59;108080;1287;22028;-60
2023/05/21 10:31:52;;;;;;;10.10;3.60;;;;;;;40.57;24.63;100384.36;107866;1287;21995;-59
2023/05/21 10:34:18;;;;;;;11.60;3.70;;;;;;;40.71;24.54;100386.45;108055;1287;22021;-59
2023/05/21 10:36:44;;;;;;;9.40;3.10;;;;;;;40.83;24.50;100385.73;108106;1287;21990;-60
2023/05/21 10:39:11;;;;;;;7.40;3.70;;;;;;;40.92;24.38;100383.17;107903;1288;21996;-58
2023/05/21 10:41:45;;;;;;;6.30;3.50;;;;;;;41.00;24.16;100382.20;108079;1287;21980;-60
2023/05/21 10:44:17;;;;;;;4.90;3.20;;;;;;;41.10;24.06;100383.42;107891;1287;23055;-61
2023/05/21 10:47:01;;;;;;;9.90;3.60;;;;;;;41.13;23.75;100381.81;108130;1274;22005;-59
2023/05/21 10:49:45;;;;;;;5.50;3.40;;;;;;;41.12;24.06;100381.57;108102;1278;22002;-59
2023/05/21 10:52:14;;;;;;;6.60;3.50;;;;;;;41.26;23.87;100377.79;108091;1287;22045;-60
2023/05/21 10:55:00;;;;;;;8.10;4.10;;;;;;;41.40;23.83;100379.86;108101;1287;21993;-59
2023/05/21 10:57:50;;;;;;;7.30;3.80;;;;;;;41.49;23.76;100382.34;108160;1287;22073;-60
2023/05/21 11:00:16;;;;;;;7.30;3.30;;;;;;;41.60;23.49;100381.94;108064;1287;22533;-59
2023/05/21 11:02:44;;;;;;;5.00;3.50;;;;;;;41.69;23.37;100381.79;107753;1278;21988;-60
2023/05/21 11:05:10;;;;;;;6.60;3.10;;;;;;;41.71;23.02;100383.41;107791;1288;21999;-59
2023/05/21 11:07:58;;;;;;;5.00;3.50;;;;;;;41.67;23.18;100378.53;108056;1287;21986;-60
2023/05/21 11:10:36;;;;;;;6.70;3.50;;;;;;;41.67;22.80;100374.88;107830;1287;21986;-59
2023/05/21 11:13:09;;;;;;;6.60;3.90;;;;;;;41.64;23.05;100381.57;108125;1287;21999;-60
2023/05/21 11:15:57;;;;;;;6.60;3.60;;;;;;;41.75;22.90;100380.45;108080;1278;21998;-60